createdAt,value
2023-03-16T00:00:49.727Z,1.00
2023-03-16T00:01:49.717Z,1.40
2023-03-16T00:02:49.719Z,1.10
2023-03-16T00:03:49.650Z,1.10
2023-03-16T00:04:49.637Z,1.00
2023-03-16T00:05:49.626Z,0.80
2023-03-16T00:06:49.617Z,1.60
2023-03-16T00:07:49.583Z,1.10
2023-03-16T00:08:49.571Z,1.10
2023-03-16T00:09:49.554Z,0.90
2023-03-16T00:10:49.534Z,0.80
2023-03-16T00:11:49.513Z,1.00
2023-03-16T00:12:49.500Z,1.00
2023-03-16T00:13:49.497Z,1.10
2023-03-16T00:14:49.472Z,0.90
2023-03-16T00:15:49.446Z,1.50
2023-03-16T00:16:49.501Z,1.00
2023-03-16T00:17:49.420Z,1.20
2023-03-16T00:18:49.403Z,1.10
2023-03-16T00:19:49.380Z,1.10
2023-03-16T00:20:49.368Z,1.10
2023-03-16T00:21:49.352Z,1.00
2023-03-16T00:22:49.333Z,0.90
2023-03-16T00:23:49.317Z,0.90
2023-03-16T00:24:49.297Z,1.00
2023-03-16T00:25:49.281Z,1.00
2023-03-16T00:26:49.269Z,0.90
2023-03-16T00:27:49.243Z,1.00
2023-03-16T00:28:49.231Z,0.90
2023-03-16T00:29:49.216Z,0.90
2023-03-16T00:30:49.192Z,1.00
2023-03-16T00:31:49.310Z,1.00
2023-03-16T00:32:49.224Z,0.90
2023-03-16T00:33:49.136Z,1.00
2023-03-16T00:34:49.125Z,0.90
2023-03-16T00:35:49.172Z,1.00
2023-03-16T00:36:49.088Z,0.90
2023-03-16T00:37:49.185Z,1.00
2023-03-16T00:38:49.053Z,0.90
2023-03-16T00:39:49.034Z,1.30
2023-03-16T00:40:49.019Z,1.30
2023-03-16T00:41:48.998Z,1.00
2023-03-16T00:42:48.987Z,1.00
2023-03-16T00:43:49.061Z,1.10
2023-03-16T00:44:48.949Z,1.00
2023-03-16T00:45:48.965Z,1.10
2023-03-16T00:46:49.115Z,1.40
2023-03-16T00:47:48.895Z,1.00
2023-03-16T00:48:48.911Z,0.90
2023-03-16T00:49:48.861Z,1.10
2023-03-16T00:50:48.848Z,1.50
2023-03-16T00:51:48.825Z,1.20
2023-03-16T00:52:48.811Z,1.20
2023-03-16T00:53:48.792Z,1.40
2023-03-16T00:54:48.776Z,1.30
2023-03-16T00:55:48.758Z,1.40
2023-03-16T00:56:48.747Z,1.00
2023-03-16T00:57:48.725Z,1.00
2023-03-16T00:58:48.710Z,1.40
2023-03-16T00:59:48.691Z,1.20
2023-03-16T01:00:48.803Z,1.50
2023-03-16T01:01:48.655Z,1.20
2023-03-16T01:02:48.666Z,1.20
2023-03-16T01:03:48.621Z,1.40
2023-03-16T01:04:48.630Z,1.20
2023-03-16T01:05:48.588Z,1.00
2023-03-16T01:06:48.572Z,1.10
2023-03-16T01:07:48.551Z,1.10
2023-03-16T01:08:48.539Z,1.10
2023-03-16T01:09:48.528Z,1.00
2023-03-16T01:10:48.503Z,1.10
2023-03-16T01:11:48.483Z,1.10
2023-03-16T01:12:48.470Z,1.20
2023-03-16T01:13:48.453Z,1.10
2023-03-16T01:14:48.440Z,1.00
2023-03-16T01:15:48.415Z,1.30
2023-03-16T01:16:48.449Z,1.10
2023-03-16T01:18:48.365Z,0.90
2023-03-16T01:19:48.348Z,1.10
2023-03-16T01:20:48.347Z,1.30
2023-03-16T01:21:48.326Z,1.20
2023-03-16T01:22:48.294Z,1.20
2023-03-16T01:23:48.279Z,1.20
2023-03-16T01:24:48.263Z,1.10
2023-03-16T01:25:48.253Z,1.10
2023-03-16T01:26:48.224Z,1.90
2023-03-16T01:27:48.212Z,1.80
2023-03-16T01:28:48.196Z,2.00
2023-03-16T01:29:48.178Z,2.30
2023-03-16T01:30:48.189Z,3.50
2023-03-16T01:31:48.142Z,3.50
2023-03-16T01:32:48.209Z,6.90
2023-03-16T01:33:48.110Z,4.50
2023-03-16T01:34:48.088Z,4.70
2023-03-16T01:35:48.098Z,3.60
2023-03-16T01:36:48.070Z,2.00
2023-03-16T01:37:48.040Z,2.00
2023-03-16T01:38:48.021Z,2.50
2023-03-16T01:39:48.008Z,3.40
2023-03-16T01:40:47.984Z,2.70
2023-03-16T01:41:47.968Z,2.00
2023-03-16T01:42:47.952Z,2.40
2023-03-16T01:43:47.935Z,1.30
2023-03-16T01:44:47.913Z,1.10
2023-03-16T01:45:48.009Z,1.20
2023-03-16T01:46:47.883Z,1.30
2023-03-16T01:47:47.867Z,1.30
2023-03-16T01:48:47.845Z,1.20
2023-03-16T01:49:47.834Z,1.10
2023-03-16T01:50:47.808Z,1.10
2023-03-16T01:51:47.812Z,1.50
2023-03-16T01:52:47.803Z,1.50
2023-03-16T01:53:47.762Z,1.10
2023-03-16T01:54:47.743Z,1.10
2023-03-16T01:55:47.726Z,1.10
2023-03-16T01:56:47.707Z,1.20
2023-03-16T01:57:47.694Z,1.10
2023-03-16T01:58:47.682Z,1.20
2023-03-16T01:59:47.659Z,1.30
2023-03-16T02:00:47.655Z,1.10
2023-03-16T02:01:47.757Z,0.90
2023-03-16T02:02:47.600Z,1.10
2023-03-16T02:03:47.591Z,0.90
2023-03-16T02:04:47.691Z,1.00
2023-03-16T02:05:47.555Z,1.10
2023-03-16T02:06:47.535Z,0.90
2023-03-16T02:07:47.518Z,0.90
2023-03-16T02:08:47.527Z,0.90
2023-03-16T02:09:47.487Z,1.10
2023-03-16T02:10:47.475Z,0.70
2023-03-16T02:11:47.452Z,0.90
2023-03-16T02:12:47.463Z,0.90
2023-03-16T02:13:47.411Z,1.00
2023-03-16T02:14:47.396Z,1.00
2023-03-16T02:15:47.425Z,0.80
2023-03-16T02:16:47.370Z,0.80
2023-03-16T02:17:47.344Z,1.00
2023-03-16T02:18:47.336Z,1.10
2023-03-16T02:19:47.309Z,0.90
2023-03-16T02:20:47.293Z,1.00
2023-03-16T02:21:47.274Z,0.90
2023-03-16T02:22:47.257Z,1.00
2023-03-16T02:23:47.244Z,1.00
2023-03-16T02:24:47.247Z,1.00
2023-03-16T02:25:47.240Z,0.90
2023-03-16T02:26:47.191Z,1.10
2023-03-16T02:27:47.169Z,1.00
2023-03-16T02:28:47.154Z,1.00
2023-03-16T02:29:47.135Z,1.00
2023-03-16T02:30:47.166Z,1.10
2023-03-16T02:31:47.097Z,1.20
2023-03-16T02:32:47.131Z,0.80
2023-03-16T02:33:47.064Z,1.00
2023-03-16T02:34:47.049Z,0.80
2023-03-16T02:35:47.054Z,0.80
2023-03-16T02:36:47.015Z,0.90
2023-03-16T02:37:46.993Z,0.90
2023-03-16T02:38:46.978Z,0.90
2023-03-16T02:39:46.961Z,1.00
2023-03-16T02:40:46.967Z,1.40
2023-03-16T02:41:46.938Z,1.10
2023-03-16T02:42:46.920Z,0.90
2023-03-16T02:43:46.891Z,1.00
2023-03-16T02:44:46.873Z,0.90
2023-03-16T02:45:46.854Z,1.10
2023-03-16T02:46:46.920Z,1.10
2023-03-16T02:47:46.827Z,0.90
2023-03-16T02:48:46.805Z,1.20
2023-03-16T02:49:46.785Z,0.90
2023-03-16T02:50:46.771Z,1.20
2023-03-16T02:51:46.748Z,0.90
2023-03-16T02:52:46.737Z,0.90
2023-03-16T02:53:46.721Z,1.10
2023-03-16T02:54:46.704Z,1.00
2023-03-16T02:55:46.682Z,1.10
2023-03-16T02:56:46.700Z,1.10
2023-03-16T02:57:46.644Z,0.90
2023-03-16T02:58:46.637Z,1.10
2023-03-16T02:59:46.609Z,1.00
2023-03-16T03:00:46.604Z,0.90
2023-03-16T03:01:46.587Z,0.80
2023-03-16T03:02:46.588Z,1.00
2023-03-16T03:03:46.540Z,0.90
2023-03-16T03:04:46.523Z,1.20
2023-03-16T03:05:46.512Z,0.90
2023-03-16T03:06:46.485Z,0.90
2023-03-16T03:07:46.467Z,1.10
2023-03-16T03:08:46.455Z,1.10
2023-03-16T03:09:46.436Z,0.90
2023-03-16T03:10:46.416Z,0.80
2023-03-16T03:11:46.395Z,1.20
2023-03-16T03:12:46.407Z,1.00
2023-03-16T03:13:46.363Z,1.00
2023-03-16T03:14:46.346Z,0.90
2023-03-16T03:15:46.328Z,1.00
2023-03-16T03:16:46.601Z,1.20
2023-03-16T03:17:46.297Z,1.00
2023-03-16T03:18:46.275Z,0.90
2023-03-16T03:19:46.257Z,0.70
2023-03-16T03:20:46.243Z,1.00
2023-03-16T03:21:46.223Z,0.90
2023-03-16T03:22:46.217Z,0.90
2023-03-16T03:23:46.186Z,1.00
2023-03-16T03:24:46.178Z,0.80
2023-03-16T03:25:46.171Z,1.10
2023-03-16T03:26:46.135Z,0.90
2023-03-16T03:27:46.194Z,1.40
2023-03-16T03:28:46.133Z,0.90
2023-03-16T03:29:46.079Z,1.00
2023-03-16T03:30:46.065Z,0.90
2023-03-16T03:31:46.095Z,1.00
2023-03-16T03:32:46.159Z,1.00
2023-03-16T03:33:46.017Z,1.20
2023-03-16T03:34:46.000Z,1.40
2023-03-16T03:35:46.076Z,1.40
2023-03-16T03:36:45.971Z,1.30
2023-03-16T03:37:45.940Z,1.20
2023-03-16T03:38:45.949Z,1.10
2023-03-16T03:39:45.905Z,1.20
2023-03-16T03:40:45.892Z,1.40
2023-03-16T03:41:45.874Z,0.80
2023-03-16T03:42:45.855Z,1.00
2023-03-16T03:43:45.834Z,0.90
2023-03-16T03:44:45.845Z,1.40
2023-03-16T03:45:45.852Z,1.00
2023-03-16T03:46:45.943Z,1.30
2023-03-16T03:47:45.765Z,1.30
2023-03-16T03:48:45.750Z,1.10
2023-03-16T03:49:45.729Z,1.50
2023-03-16T03:50:45.717Z,1.00
2023-03-16T03:51:45.696Z,1.00
2023-03-16T03:52:45.679Z,1.20
2023-03-16T03:53:45.682Z,0.90
2023-03-16T03:54:45.646Z,1.30
2023-03-16T03:55:45.627Z,1.40
2023-03-16T03:56:45.608Z,1.10
2023-03-16T03:57:45.604Z,1.40
2023-03-16T03:58:45.588Z,1.20
2023-03-16T03:59:45.550Z,1.00
2023-03-16T04:00:45.557Z,1.00
2023-03-16T04:01:45.569Z,1.70
2023-03-16T04:02:45.696Z,0.90
2023-03-16T04:03:45.482Z,1.50
2023-03-16T04:04:45.466Z,1.40
2023-03-16T04:05:45.444Z,1.00
2023-03-16T04:06:45.430Z,0.80
2023-03-16T04:07:45.412Z,1.40
2023-03-16T04:08:45.404Z,1.00
2023-03-16T04:09:45.374Z,1.00
2023-03-16T04:10:45.358Z,1.30
2023-03-16T04:11:45.338Z,0.80
2023-03-16T04:12:45.322Z,0.80
2023-03-16T04:13:45.302Z,1.10
2023-03-16T04:14:45.303Z,1.10
2023-03-16T04:15:45.469Z,0.80
2023-03-16T04:16:45.368Z,1.00
2023-03-16T04:17:45.232Z,0.90
2023-03-16T04:18:45.223Z,1.10
2023-03-16T04:19:45.197Z,1.20
2023-03-16T04:20:45.180Z,1.40
2023-03-16T04:21:45.164Z,1.20
2023-03-16T04:22:45.164Z,1.10
2023-03-16T04:23:45.134Z,1.10
2023-03-16T04:24:45.111Z,1.20
2023-03-16T04:25:45.122Z,0.90
2023-03-16T04:26:45.117Z,1.00
2023-03-16T04:27:45.052Z,1.00
2023-03-16T04:28:45.047Z,1.00
2023-03-16T04:29:45.018Z,1.20
2023-03-16T04:30:45.070Z,1.30
2023-03-16T04:31:44.986Z,1.10
2023-03-16T04:32:45.041Z,1.10
2023-03-16T04:33:44.948Z,1.10
2023-03-16T04:34:44.934Z,1.10
2023-03-16T04:35:44.932Z,0.90
2023-03-16T04:36:44.898Z,0.90
2023-03-16T04:37:44.883Z,1.10
2023-03-16T04:38:44.861Z,1.20
2023-03-16T04:39:44.844Z,1.00
2023-03-16T04:40:44.828Z,0.90
2023-03-16T04:41:44.807Z,1.00
2023-03-16T04:42:44.792Z,1.10
2023-03-16T04:43:44.777Z,0.90
2023-03-16T04:44:44.753Z,0.90
2023-03-16T04:45:44.738Z,1.30
2023-03-16T04:46:44.875Z,1.10
2023-03-16T04:47:44.698Z,1.20
2023-03-16T04:48:44.710Z,1.20
2023-03-16T04:49:44.663Z,1.10
2023-03-16T04:50:44.661Z,1.30
2023-03-16T04:51:44.629Z,0.90
2023-03-16T04:52:44.613Z,1.00
2023-03-16T04:53:44.600Z,1.20
2023-03-16T04:54:44.578Z,1.00
2023-03-16T04:55:44.555Z,0.90
2023-03-16T04:56:44.548Z,1.00
2023-03-16T04:57:44.522Z,1.10
2023-03-16T04:58:44.515Z,1.20
2023-03-16T04:59:44.485Z,1.20
2023-03-16T05:00:44.470Z,1.40
2023-03-16T05:01:44.485Z,1.40
2023-03-16T05:02:44.434Z,1.40
2023-03-16T05:03:44.415Z,1.20
2023-03-16T05:04:44.427Z,1.20
2023-03-16T05:05:44.429Z,1.40
2023-03-16T05:06:44.365Z,1.30
2023-03-16T05:07:44.341Z,1.00
2023-03-16T05:08:44.325Z,1.20
2023-03-16T05:09:44.317Z,1.20
2023-03-16T05:10:44.289Z,1.20
2023-03-16T05:11:44.277Z,0.90
2023-03-16T05:12:44.254Z,1.20
2023-03-16T05:13:44.236Z,1.50
2023-03-16T05:14:44.220Z,1.00
2023-03-16T05:15:44.306Z,1.10
2023-03-16T05:16:44.184Z,1.20
2023-03-16T05:17:44.165Z,1.60
2023-03-16T05:18:44.146Z,1.40
2023-03-16T05:19:44.128Z,1.40
2023-03-16T05:20:44.132Z,1.40
2023-03-16T05:21:44.092Z,1.50
2023-03-16T05:22:44.075Z,1.60
2023-03-16T05:23:44.057Z,1.20
2023-03-16T05:24:44.042Z,1.50
2023-03-16T05:25:46.721Z,1.10
2023-03-16T05:26:44.012Z,1.00
2023-03-16T05:27:43.986Z,1.10
2023-03-16T05:28:43.971Z,1.30
2023-03-16T05:29:43.948Z,1.30
2023-03-16T05:30:43.931Z,1.20
2023-03-16T05:31:43.924Z,1.10
2023-03-16T05:32:43.954Z,1.30
2023-03-16T05:33:43.879Z,1.20
2023-03-16T05:34:43.861Z,1.30
2023-03-16T05:35:43.849Z,1.00
2023-03-16T05:36:43.848Z,1.10
2023-03-16T05:37:43.809Z,1.30
2023-03-16T05:38:43.796Z,1.10
2023-03-16T05:39:43.770Z,0.90
2023-03-16T05:40:43.780Z,1.10
2023-03-16T05:41:43.738Z,1.30
2023-03-16T05:42:43.722Z,1.50
2023-03-16T05:43:43.706Z,1.30
2023-03-16T05:44:43.688Z,1.20
2023-03-16T05:45:43.667Z,1.10
2023-03-16T05:46:43.663Z,1.20
2023-03-16T05:47:43.636Z,1.50
2023-03-16T05:48:43.623Z,1.30
2023-03-16T05:49:43.596Z,1.10
2023-03-16T05:50:43.585Z,1.40
2023-03-16T05:51:43.560Z,1.40
2023-03-16T05:52:43.569Z,1.50
2023-03-16T05:53:43.525Z,1.10
2023-03-16T05:54:43.512Z,1.20
2023-03-16T05:55:43.488Z,1.30
2023-03-16T05:56:43.472Z,1.10
2023-03-16T05:57:43.460Z,1.30
2023-03-16T05:58:43.438Z,1.30
2023-03-16T05:59:43.414Z,1.30
2023-03-16T06:00:43.403Z,1.10
2023-03-16T06:01:43.379Z,1.40
2023-03-16T06:02:43.459Z,1.10
2023-03-16T06:03:43.403Z,1.20
2023-03-16T06:04:43.330Z,1.70
2023-03-16T06:05:43.310Z,1.20
2023-03-16T06:06:43.294Z,1.40
2023-03-16T06:07:43.277Z,1.40
2023-03-16T06:08:43.277Z,1.30
2023-03-16T06:09:43.239Z,1.30
2023-03-16T06:10:43.227Z,1.50
2023-03-16T06:11:43.202Z,1.40
2023-03-16T06:12:43.188Z,1.30
2023-03-16T06:13:43.169Z,1.50
2023-03-16T06:14:43.154Z,1.30
2023-03-16T06:15:43.131Z,1.70
2023-03-16T06:16:43.282Z,1.80
2023-03-16T06:17:43.124Z,1.60
2023-03-16T06:18:43.091Z,1.50
2023-03-16T06:19:43.060Z,1.20
2023-03-16T06:20:43.046Z,1.20
2023-03-16T06:21:43.098Z,1.50
2023-03-16T06:22:43.011Z,1.30
2023-03-16T06:23:42.993Z,1.00
2023-03-16T06:24:42.996Z,1.30
2023-03-16T06:25:42.970Z,1.10
2023-03-16T06:26:42.936Z,1.50
2023-03-16T06:27:42.923Z,1.50
2023-03-16T06:28:42.909Z,1.80
2023-03-16T06:29:42.888Z,1.10
2023-03-16T06:30:42.868Z,1.40
2023-03-16T06:31:42.899Z,1.10
2023-03-16T06:32:42.914Z,1.60
2023-03-16T06:33:42.819Z,1.20
2023-03-16T06:34:42.796Z,1.50
2023-03-16T06:35:42.883Z,1.20
2023-03-16T06:36:42.763Z,1.40
2023-03-16T06:37:42.760Z,1.30
2023-03-16T06:38:42.727Z,1.40
2023-03-16T06:39:42.715Z,1.40
2023-03-16T06:40:42.719Z,1.50
2023-03-16T06:41:42.689Z,1.20
2023-03-16T06:42:43.710Z,1.40
2023-03-16T06:43:42.644Z,1.40
2023-03-16T06:44:42.623Z,1.30
2023-03-16T06:45:42.653Z,1.70
2023-03-16T06:46:42.608Z,1.20
2023-03-16T06:47:42.573Z,1.30
2023-03-16T06:48:42.552Z,1.30
2023-03-16T06:49:42.541Z,1.50
2023-03-16T06:50:42.523Z,1.20
2023-03-16T06:51:42.504Z,1.40
2023-03-16T06:52:42.490Z,1.50
2023-03-16T06:53:42.471Z,1.50
2023-03-16T06:54:42.449Z,1.60
2023-03-16T06:55:42.435Z,1.30
2023-03-16T06:56:42.438Z,1.70
2023-03-16T06:57:42.404Z,1.50
2023-03-16T06:58:42.380Z,1.60
2023-03-16T06:59:42.366Z,1.70
2023-03-16T07:00:42.387Z,1.60
2023-03-16T07:01:42.425Z,1.40
2023-03-16T07:02:42.311Z,1.60
2023-03-16T07:03:42.296Z,1.70
2023-03-16T07:04:42.386Z,1.80
2023-03-16T07:05:42.261Z,1.80
2023-03-16T07:06:42.243Z,2.20
2023-03-16T07:07:42.234Z,1.80
2023-03-16T07:08:42.210Z,1.90
2023-03-16T07:09:42.210Z,1.80
2023-03-16T07:10:42.175Z,1.90
2023-03-16T07:11:42.166Z,1.50
2023-03-16T07:12:42.233Z,1.90
2023-03-16T07:13:42.136Z,1.90
2023-03-16T07:14:42.163Z,2.20
2023-03-16T07:15:42.096Z,2.10
2023-03-16T07:16:42.214Z,2.00
2023-03-16T07:17:42.058Z,1.90
2023-03-16T07:18:42.039Z,2.10
2023-03-16T07:19:42.027Z,1.70
2023-03-16T07:20:42.009Z,2.20
2023-03-16T07:21:42.000Z,2.30
2023-03-16T07:22:41.992Z,2.20
2023-03-16T07:23:41.976Z,2.20
2023-03-16T07:24:41.938Z,2.40
2023-03-16T07:25:41.928Z,2.20
2023-03-16T07:26:41.910Z,2.20
2023-03-16T07:27:41.946Z,2.30
2023-03-16T07:28:41.891Z,1.90
2023-03-16T07:29:41.861Z,2.10
2023-03-16T07:30:53.230Z,2.00
2023-03-16T07:31:41.910Z,1.80
2023-03-16T07:32:41.882Z,2.30
2023-03-16T07:33:41.794Z,2.10
2023-03-16T07:34:41.776Z,2.20
2023-03-16T07:35:41.813Z,1.90
2023-03-16T07:36:41.745Z,1.60
2023-03-16T07:37:41.730Z,1.80
2023-03-16T07:38:41.707Z,1.90
2023-03-16T07:39:41.696Z,2.10
2023-03-16T07:40:41.680Z,2.00
2023-03-16T07:41:41.701Z,2.00
2023-03-16T07:42:41.644Z,2.00
2023-03-16T07:43:41.638Z,2.30
2023-03-16T07:44:41.633Z,1.80
2023-03-16T07:45:41.687Z,2.00
2023-03-16T07:46:41.612Z,2.20
2023-03-16T07:47:41.575Z,1.90
2023-03-16T07:48:41.551Z,1.90
2023-03-16T07:49:41.593Z,2.10
2023-03-16T07:50:41.526Z,2.10
2023-03-16T07:51:41.511Z,2.20
2023-03-16T07:52:41.487Z,2.40
2023-03-16T07:53:41.477Z,2.30
2023-03-16T07:54:41.485Z,2.10
2023-03-16T07:55:41.443Z,2.00
2023-03-16T07:56:48.763Z,2.40
2023-03-16T07:57:41.411Z,2.30
2023-03-16T07:58:41.393Z,2.30
2023-03-16T07:59:41.379Z,2.20
2023-03-16T08:00:41.381Z,2.80
2023-03-16T08:01:41.351Z,2.00
2023-03-16T08:02:41.420Z,1.70
2023-03-16T08:03:41.394Z,1.50
2023-03-16T08:04:41.299Z,1.90
2023-03-16T08:05:41.284Z,2.40
2023-03-16T08:06:41.266Z,2.20
2023-03-16T08:07:41.272Z,2.10
2023-03-16T08:08:41.232Z,2.10
2023-03-16T08:09:41.226Z,1.90
2023-03-16T08:10:41.205Z,1.80
2023-03-16T08:11:41.192Z,1.90
2023-03-16T08:12:41.236Z,2.10
2023-03-16T08:13:41.162Z,2.30
2023-03-16T08:14:41.142Z,2.30
2023-03-16T08:15:41.186Z,2.10
2023-03-16T08:16:41.138Z,1.90
2023-03-16T08:17:41.103Z,2.10
2023-03-16T08:18:41.081Z,2.30
2023-03-16T08:19:41.079Z,2.00
2023-03-16T08:20:41.052Z,1.90
2023-03-16T08:21:58.294Z,1.80
2023-03-16T08:22:41.022Z,2.30
2023-03-16T08:23:41.012Z,2.20
2023-03-16T08:24:41.002Z,2.20
2023-03-16T08:25:40.992Z,2.20
2023-03-16T08:26:40.964Z,2.10
2023-03-16T08:27:40.948Z,1.60
2023-03-16T08:28:41.022Z,2.00
2023-03-16T08:29:40.926Z,1.80
2023-03-16T08:30:40.900Z,2.10
2023-03-16T08:31:40.924Z,1.80
2023-03-16T08:32:41.077Z,1.60
2023-03-16T08:33:40.859Z,1.80
2023-03-16T08:34:40.860Z,1.80
2023-03-16T08:35:40.861Z,1.70
2023-03-16T08:36:40.818Z,1.80
2023-03-16T08:37:40.797Z,1.70
2023-03-16T08:38:40.781Z,2.40
2023-03-16T08:39:40.775Z,1.80
2023-03-16T08:40:40.750Z,1.90
2023-03-16T08:41:40.820Z,1.80
2023-03-16T08:42:40.722Z,1.70
2023-03-16T08:43:40.708Z,1.90
2023-03-16T08:44:40.691Z,1.90
2023-03-16T08:45:40.678Z,1.70
2023-03-16T08:46:40.756Z,1.50
2023-03-16T08:47:40.714Z,1.60
2023-03-16T08:48:40.728Z,1.80
2023-03-16T08:49:40.636Z,2.00
2023-03-16T08:50:40.602Z,1.70
2023-03-16T08:51:40.588Z,1.60
2023-03-16T08:52:40.573Z,1.70
2023-03-16T08:53:40.560Z,1.60
2023-03-16T08:54:43.061Z,1.40
2023-03-16T08:55:40.531Z,1.40
2023-03-16T08:56:40.515Z,1.60
2023-03-16T08:57:40.503Z,1.60
2023-03-16T08:58:40.487Z,1.50
2023-03-16T08:59:40.474Z,1.70
2023-03-16T09:00:40.458Z,1.80
2023-03-16T09:01:40.615Z,1.80
2023-03-16T09:02:40.439Z,2.00
2023-03-16T09:03:40.421Z,1.80
2023-03-16T09:04:40.510Z,1.70
2023-03-16T09:05:40.396Z,1.70
2023-03-16T09:06:40.373Z,1.80
2023-03-16T09:07:40.366Z,1.70
2023-03-16T09:08:40.346Z,1.90
2023-03-16T09:09:40.334Z,1.70
2023-03-16T09:10:40.315Z,1.70
2023-03-16T09:11:40.307Z,1.70
2023-03-16T09:12:40.288Z,1.80
2023-03-16T09:13:40.318Z,1.70
2023-03-16T09:14:40.273Z,1.70
2023-03-16T09:15:40.266Z,1.60
2023-03-16T09:16:40.322Z,1.60
2023-03-16T09:17:40.221Z,1.60
2023-03-16T09:18:40.212Z,1.60
2023-03-16T09:19:51.085Z,1.80
2023-03-16T09:20:40.625Z,1.60
2023-03-16T09:21:40.167Z,1.60
2023-03-16T09:22:40.150Z,1.60
2023-03-16T09:23:40.139Z,1.30
2023-03-16T09:24:40.122Z,1.60
2023-03-16T09:25:40.113Z,1.30
2023-03-16T09:26:40.220Z,1.60
2023-03-16T09:27:40.085Z,1.40
2023-03-16T09:28:40.069Z,1.40
2023-03-16T09:29:40.059Z,1.90
2023-03-16T09:30:40.040Z,1.60
2023-03-16T09:31:40.095Z,1.40
2023-03-16T09:32:40.092Z,1.50
2023-03-16T09:33:40.016Z,1.50
2023-03-16T09:34:40.017Z,1.40
2023-03-16T09:35:40.035Z,1.60
2023-03-16T09:36:40.037Z,1.30
2023-03-16T09:37:45.406Z,1.20
2023-03-16T09:38:39.936Z,1.40
2023-03-16T09:39:39.924Z,1.40
2023-03-16T09:40:39.909Z,1.40
2023-03-16T09:41:39.900Z,1.60
2023-03-16T09:42:39.888Z,1.50
2023-03-16T09:43:39.876Z,1.30
2023-03-16T09:44:39.868Z,1.40
2023-03-16T09:45:39.924Z,1.70
2023-03-16T09:46:39.832Z,1.40
2023-03-16T09:47:39.826Z,1.50
2023-03-16T09:48:39.809Z,1.60
2023-03-16T09:49:39.794Z,1.50
2023-03-16T09:50:48.356Z,1.40
2023-03-16T09:51:39.783Z,1.40
2023-03-16T09:52:39.792Z,1.40
2023-03-16T09:53:39.741Z,1.40
2023-03-16T09:54:39.725Z,1.50
2023-03-16T09:55:39.723Z,1.50
2023-03-16T09:56:39.702Z,1.70
2023-03-16T09:57:39.704Z,1.60
2023-03-16T09:58:39.677Z,1.50
2023-03-16T09:59:39.664Z,1.70
2023-03-16T10:00:39.656Z,1.60
2023-03-16T10:01:39.639Z,1.60
2023-03-16T10:02:39.624Z,1.90
2023-03-16T10:03:39.643Z,2.30
2023-03-16T10:04:39.619Z,1.90
2023-03-16T10:05:39.586Z,1.80
2023-03-16T10:06:39.572Z,1.70
2023-03-16T10:07:39.564Z,2.10
2023-03-16T10:08:39.567Z,1.60
2023-03-16T10:09:39.541Z,1.70
2023-03-16T10:10:39.521Z,2.10
2023-03-16T10:11:39.514Z,1.70
2023-03-16T10:12:39.495Z,2.10
2023-03-16T10:13:39.484Z,2.30
2023-03-16T10:14:39.576Z,1.80
2023-03-16T10:15:39.462Z,2.10
2023-03-16T10:16:39.526Z,1.30
2023-03-16T10:17:39.434Z,1.60
2023-03-16T10:18:39.418Z,1.90
2023-03-16T10:19:39.407Z,1.90
2023-03-16T10:20:39.393Z,1.90
2023-03-16T10:21:39.382Z,1.80
2023-03-16T10:22:39.367Z,1.60
2023-03-16T10:23:40.926Z,1.80
2023-03-16T10:24:39.361Z,2.30
2023-03-16T10:25:39.331Z,1.50
2023-03-16T10:26:39.322Z,1.80
2023-03-16T10:27:39.315Z,2.10
2023-03-16T10:28:39.291Z,2.10
2023-03-16T10:29:39.281Z,1.80
2023-03-16T10:30:39.268Z,1.40
2023-03-16T10:31:39.288Z,1.90
2023-03-16T10:32:39.281Z,1.80
2023-03-16T10:33:39.233Z,1.80
2023-03-16T10:34:39.215Z,1.50
2023-03-16T10:35:39.207Z,1.70
2023-03-16T10:36:39.216Z,1.40
2023-03-16T10:37:39.183Z,1.80
2023-03-16T10:38:39.174Z,1.50
2023-03-16T10:39:39.154Z,1.60
2023-03-16T10:40:39.177Z,1.80
2023-03-16T10:41:39.137Z,1.80
2023-03-16T10:42:39.119Z,1.40
2023-03-16T10:43:39.107Z,1.90
2023-03-16T10:44:39.099Z,1.40
2023-03-16T10:45:39.124Z,1.90
2023-03-16T10:46:39.234Z,1.60
2023-03-16T10:47:39.060Z,1.80
2023-03-16T10:48:39.049Z,2.00
2023-03-16T10:49:39.035Z,1.70
2023-03-16T10:50:39.030Z,1.80
2023-03-16T10:51:39.035Z,1.50
2023-03-16T10:52:39.004Z,1.50
2023-03-16T10:53:38.996Z,1.60
2023-03-16T10:54:38.981Z,1.40
2023-03-16T10:55:38.965Z,1.40
2023-03-16T10:56:38.977Z,1.60
2023-03-16T10:57:38.942Z,1.30
2023-03-16T10:58:38.936Z,1.60
2023-03-16T10:59:38.921Z,1.80
2023-03-16T11:00:38.914Z,2.00
2023-03-16T11:01:39.029Z,1.50
2023-03-16T11:02:38.890Z,1.50
2023-03-16T11:03:38.941Z,1.30
2023-03-16T11:04:38.924Z,1.50
2023-03-16T11:05:38.855Z,1.40
2023-03-16T11:06:38.845Z,1.70
2023-03-16T11:07:38.827Z,1.20
2023-03-16T11:08:38.881Z,1.30
2023-03-16T11:09:38.811Z,1.40
2023-03-16T11:10:49.455Z,1.30
2023-03-16T11:11:38.788Z,1.50
2023-03-16T11:12:38.795Z,1.40
2023-03-16T11:13:38.765Z,1.70
2023-03-16T11:14:38.784Z,1.40
2023-03-16T11:15:38.741Z,1.60
2023-03-16T11:16:38.795Z,1.10
2023-03-16T11:17:38.720Z,1.50
2023-03-16T11:18:38.710Z,1.60
2023-03-16T11:19:38.699Z,1.70
2023-03-16T11:20:38.691Z,1.50
2023-03-16T11:21:38.672Z,1.50
2023-03-16T11:22:38.663Z,1.50
2023-03-16T11:23:38.652Z,1.40
2023-03-16T11:24:38.642Z,1.40
2023-03-16T11:25:38.628Z,1.60
2023-03-16T11:26:38.624Z,2.00
2023-03-16T11:27:38.638Z,1.40
2023-03-16T11:28:38.675Z,1.60
2023-03-16T11:29:38.589Z,1.60
2023-03-16T11:30:38.574Z,1.50
2023-03-16T11:31:38.565Z,1.50
2023-03-16T11:32:38.628Z,1.50
2023-03-16T11:33:38.540Z,1.80
2023-03-16T11:34:38.536Z,1.30
2023-03-16T11:35:44.045Z,1.60
2023-03-16T11:36:38.508Z,1.50
2023-03-16T11:37:38.493Z,1.50
2023-03-16T11:38:38.490Z,1.60
2023-03-16T11:39:38.468Z,1.60
2023-03-16T11:40:38.464Z,1.30
2023-03-16T11:41:38.451Z,1.40
2023-03-16T11:42:38.447Z,1.60
2023-03-16T11:43:38.429Z,1.60
2023-03-16T11:44:38.438Z,1.50
2023-03-16T11:45:38.405Z,1.50
2023-03-16T11:46:38.503Z,1.30
2023-03-16T11:47:38.383Z,1.60
2023-03-16T11:48:38.378Z,1.40
2023-03-16T11:49:38.367Z,1.50
2023-03-16T11:50:38.351Z,1.50
2023-03-16T11:51:39.519Z,1.60
2023-03-16T11:52:38.326Z,1.50
2023-03-16T11:53:38.313Z,1.30
2023-03-16T11:54:38.302Z,1.60
2023-03-16T11:55:38.285Z,1.40
2023-03-16T11:56:38.285Z,1.30
2023-03-16T11:57:38.263Z,1.40
2023-03-16T11:58:38.274Z,1.60
2023-03-16T11:59:38.759Z,1.50
2023-03-16T12:00:38.251Z,1.50
2023-03-16T12:01:39.444Z,1.70
2023-03-16T12:02:38.382Z,1.20
2023-03-16T12:03:38.320Z,1.70
2023-03-16T12:04:38.184Z,1.60
2023-03-16T12:05:38.197Z,1.60
2023-03-16T12:06:38.163Z,1.70
2023-03-16T12:07:38.152Z,1.10
2023-03-16T12:08:38.143Z,1.50
2023-03-16T12:09:38.128Z,2.00
2023-03-16T12:10:38.119Z,1.30
2023-03-16T12:11:40.286Z,1.40
2023-03-16T12:12:38.103Z,1.40
2023-03-16T12:13:38.086Z,1.30
2023-03-16T12:14:38.074Z,1.50
2023-03-16T12:15:38.063Z,1.40
2023-03-16T12:16:48.795Z,1.30
2023-03-16T12:17:38.041Z,1.50
2023-03-16T12:18:38.030Z,1.50
2023-03-16T12:19:38.026Z,1.30
2023-03-16T12:20:38.013Z,1.60
2023-03-16T12:21:37.998Z,1.00
2023-03-16T12:22:37.991Z,1.30
2023-03-16T12:23:37.975Z,1.50
2023-03-16T12:24:37.969Z,1.20
2023-03-16T12:25:37.953Z,1.40
2023-03-16T12:26:37.947Z,1.40
2023-03-16T12:27:37.937Z,1.30
2023-03-16T12:28:37.936Z,1.30
2023-03-16T12:29:37.973Z,2.00
2023-03-16T12:30:37.904Z,1.50
2023-03-16T12:31:38.049Z,1.30
2023-03-16T12:32:37.960Z,1.70
2023-03-16T12:33:37.872Z,1.10
2023-03-16T12:34:37.862Z,1.20
2023-03-16T12:35:37.907Z,1.40
2023-03-16T12:36:37.846Z,1.40
2023-03-16T12:37:37.836Z,1.30
2023-03-16T12:38:37.828Z,1.50
2023-03-16T12:39:37.807Z,1.20
2023-03-16T12:40:37.803Z,1.20
2023-03-16T12:41:37.788Z,1.50
2023-03-16T12:42:37.780Z,1.20
2023-03-16T12:43:37.796Z,1.20
2023-03-16T12:44:37.763Z,1.30
2023-03-16T12:45:37.816Z,1.10
2023-03-16T12:46:37.760Z,1.50
2023-03-16T12:47:37.725Z,1.40
2023-03-16T12:48:37.772Z,1.40
2023-03-16T12:49:37.911Z,1.30
2023-03-16T12:50:37.703Z,1.60
2023-03-16T12:51:37.685Z,1.40
2023-03-16T12:52:37.680Z,1.30
2023-03-16T12:53:37.665Z,1.30
2023-03-16T12:54:37.668Z,1.50
2023-03-16T12:55:37.652Z,1.30
2023-03-16T12:58:37.820Z,1.40
2023-03-16T12:59:38.007Z,1.60
2023-03-16T13:00:40.784Z,1.60
2023-03-16T13:01:38.091Z,1.50
2023-03-16T13:02:37.592Z,1.60
2023-03-16T13:03:37.565Z,1.50
2023-03-16T13:04:37.697Z,1.30
2023-03-16T13:05:37.547Z,1.10
2023-03-16T13:06:37.743Z,1.40
2023-03-16T13:07:37.530Z,1.30
2023-03-16T13:08:37.524Z,1.30
2023-03-16T13:09:37.516Z,1.20
2023-03-16T13:10:37.523Z,1.50
2023-03-16T13:11:37.497Z,1.30
2023-03-16T13:12:37.492Z,1.10
2023-03-16T13:13:37.476Z,1.30
2023-03-16T13:14:37.464Z,1.40
2023-03-16T13:15:37.465Z,1.50
2023-03-16T13:16:37.638Z,1.40
2023-03-16T13:17:39.061Z,1.50
2023-03-16T13:18:37.432Z,1.50
2023-03-16T13:19:37.415Z,1.30
2023-03-16T13:20:37.884Z,1.30
2023-03-16T13:21:37.396Z,1.30